Time;durP1;ratioP1;P1;durP2;ratioP2;P2;SDS_P1;SDS_P2;PMS_P1;PMS_P2;Temp;Humidity;BMP_temperature;BMP_pressure;BME280_temperature;BME280_humidity;BME280_pressure;Samples;Min_cycle;Max_cycle;Signal;HPM_P1;HPM_P2
2023/08/27 00:01:11;;;;;;;1.40;1.00;;;17.90;99.90;;;;;;4897372;28;20497;-16
2023/08/27 00:03:37;;;;;;;1.55;0.98;;;17.90;99.90;;;;;;4896132;28;20541;-17
2023/08/27 00:06:03;;;;;;;1.52;1.00;;;17.90;99.90;;;;;;4951826;28;20146;-16
2023/08/27 00:08:29;;;;;;;1.10;1.00;;;17.90;99.90;;;;;;4966024;28;20042;-16
2023/08/27 00:10:59;;;;;;;1.40;1.00;;;17.90;99.90;;;;;;4879221;28;20772;-16
2023/08/27 00:13:25;;;;;;;1.63;1.10;;;17.90;99.90;;;;;;4880016;28;20051;-16
2023/08/27 00:15:51;;;;;;;1.42;1.13;;;18.00;99.90;;;;;;4957448;28;20047;-17
2023/08/27 00:18:16;;;;;;;0.80;0.80;;;17.90;99.90;;;;;;4980185;28;20032;-16
2023/08/27 00:20:45;;;;;;;1.23;1.13;;;17.90;99.90;;;;;;4892824;28;20032;-17
2023/08/27 00:23:13;;;;;;;2.80;1.30;;;17.90;99.90;;;;;;4900648;28;20032;-17
2023/08/27 00:25:39;;;;;;;1.30;1.00;;;17.90;99.90;;;;;;4886648;28;20445;-17
2023/08/27 00:28:07;;;;;;;1.58;1.10;;;17.90;99.90;;;;;;4870596;28;20110;-16
2023/08/27 00:30:33;;;;;;;1.63;1.17;;;17.90;99.90;;;;;;4898832;28;20191;-16
2023/08/27 00:32:59;;;;;;;1.50;1.10;;;17.90;99.90;;;;;;4888512;28;20264;-16
2023/08/27 00:35:24;;;;;;;1.93;1.10;;;17.90;99.90;;;;;;4881349;28;20070;-16
2023/08/27 00:37:50;;;;;;;1.45;0.93;;;17.90;99.90;;;;;;4884530;28;20121;-17
2023/08/27 00:40:16;;;;;;;1.57;1.10;;;17.90;99.90;;;;;;4888766;28;20462;-17
2023/08/27 00:42:42;;;;;;;1.25;0.93;;;18.00;99.90;;;;;;4944660;28;20061;-17
2023/08/27 00:45:08;;;;;;;1.30;1.00;;;17.90;99.90;;;;;;4872023;28;20024;-16
2023/08/27 00:47:38;;;;;;;2.08;1.17;;;17.90;99.90;;;;;;4961645;28;20032;-16
2023/08/27 00:50:08;;;;;;;1.30;0.95;;;17.90;99.90;;;;;;4895581;28;20678;-15
2023/08/27 00:52:34;;;;;;;1.65;1.00;;;18.00;99.90;;;;;;4888716;28;20394;-16
2023/08/27 00:55:03;;;;;;;1.53;1.17;;;17.90;99.90;;;;;;4960233;28;20265;-15
2023/08/27 00:57:30;;;;;;;1.20;1.10;;;17.90;99.90;;;;;;4883678;28;20040;-15
2023/08/27 00:59:58;;;;;;;1.25;1.08;;;18.00;99.90;;;;;;4878542;28;20028;-16
2023/08/27 01:02:24;;;;;;;1.60;1.20;;;18.00;99.90;;;;;;4969439;28;20029;-16
2023/08/27 01:04:50;;;;;;;2.47;1.35;;;17.90;99.90;;;;;;4898156;28;20563;-15
2023/08/27 01:07:26;;;;;;;1.33;1.07;;;17.90;99.90;;;;;;4885017;28;20036;-15
2023/08/27 01:10:23;;;;;;;1.30;1.10;;;18.00;99.90;;;;;;4897756;28;20040;-14
2023/08/27 01:13:02;;;;;;;2.25;1.00;;;17.90;99.90;;;;;;4965692;28;20040;-14
2023/08/27 01:15:29;;;;;;;1.48;1.23;;;17.90;99.90;;;;;;4949760;28;20140;-14
2023/08/27 01:17:58;;;;;;;2.03;1.20;;;17.90;99.90;;;;;;4900504;28;20499;-14
2023/08/27 01:20:23;;;;;;;2.08;1.10;;;17.90;99.90;;;;;;4962977;28;20131;-14
2023/08/27 01:22:49;;;;;;;2.00;1.17;;;17.90;99.90;;;;;;4893381;28;20035;-14
2023/08/27 01:25:21;;;;;;;1.70;1.10;;;17.90;99.90;;;;;;4887819;28;20032;-14
2023/08/27 01:28:11;;;;;;;1.75;1.23;;;17.90;99.90;;;;;;4962737;28;20040;-13
2023/08/27 01:31:00;;;;;;;1.70;1.23;;;17.90;99.90;;;;;;4878205;28;20040;-14
2023/08/27 01:33:27;;;;;;;1.60;1.10;;;17.90;99.90;;;;;;4965760;28;20037;-14
2023/08/27 01:35:55;;;;;;;1.67;1.30;;;17.80;99.90;;;;;;4974161;28;20511;-14
2023/08/27 01:38:21;;;;;;;1.88;1.10;;;17.90;99.90;;;;;;4961505;28;20025;-13
2023/08/27 01:40:47;;;;;;;1.77;1.10;;;17.80;99.90;;;;;;4899391;28;20033;-14
2023/08/27 01:43:13;;;;;;;1.35;1.00;;;17.80;99.90;;;;;;4879779;28;20115;-14
2023/08/27 01:45:39;;;;;;;1.87;1.17;;;17.80;99.90;;;;;;4876314;28;20022;-14
2023/08/27 01:48:05;;;;;;;1.25;1.00;;;17.80;99.90;;;;;;4890279;28;20121;-14
2023/08/27 01:50:32;;;;;;;2.60;1.27;;;17.70;99.90;;;;;;4975979;28;20033;-13
2023/08/27 01:52:58;;;;;;;2.93;1.50;;;17.70;99.90;;;;;;4966099;28;20288;-13
2023/08/27 01:55:24;;;;;;;1.77;1.17;;;17.70;99.90;;;;;;4958081;28;20039;-14
2023/08/27 01:57:50;;;;;;;2.28;1.17;;;17.70;99.90;;;;;;4961867;28;20691;-13
2023/08/27 02:00:16;;;;;;;2.03;1.20;;;17.70;99.90;;;;;;4920288;28;20038;-14
2023/08/27 02:02:43;;;;;;;1.58;1.17;;;17.70;99.90;;;;;;4963856;28;20021;-15
2023/08/27 02:05:09;;;;;;;1.80;1.20;;;17.80;99.90;;;;;;4897173;28;20139;-16
2023/08/27 02:07:37;;;;;;;1.50;1.08;;;17.60;99.90;;;;;;4982663;28;20101;-15
2023/08/27 02:10:06;;;;;;;1.90;1.40;;;17.70;99.90;;;;;;4894248;28;20050;-15
2023/08/27 02:12:32;;;;;;;1.37;1.10;;;17.60;99.90;;;;;;4964279;28;20315;-17
2023/08/27 02:14:59;;;;;;;2.63;1.30;;;17.70;99.90;;;;;;4888310;28;20031;-15
2023/08/27 02:17:25;;;;;;;3.05;1.20;;;17.70;99.90;;;;;;4956491;28;20246;-16
2023/08/27 02:19:51;;;;;;;1.67;1.10;;;17.60;99.90;;;;;;4895107;28;20068;-16
2023/08/27 02:22:16;;;;;;;1.60;1.10;;;17.60;99.90;;;;;;4978541;28;20036;-16
2023/08/27 02:24:42;;;;;;;1.80;1.20;;;17.60;99.90;;;;;;4888103;28;20040;-16
2023/08/27 02:27:08;;;;;;;1.92;1.17;;;17.60;99.90;;;;;;4896067;28;20390;-15
2023/08/27 02:29:35;;;;;;;2.83;1.13;;;17.60;99.90;;;;;;4887455;28;21033;-17
2023/08/27 02:32:02;;;;;;;2.03;1.20;;;17.60;99.90;;;;;;4886966;28;20157;-17
2023/08/27 02:34:28;;;;;;;1.60;1.23;;;17.50;99.90;;;;;;4965248;28;20258;-16
2023/08/27 02:36:54;;;;;;;2.00;1.30;;;17.60;99.90;;;;;;4982927;28;20036;-17
2023/08/27 02:39:20;;;;;;;2.47;1.30;;;17.50;99.90;;;;;;4894533;29;20251;-16
2023/08/27 02:41:45;;;;;;;1.67;1.10;;;17.50;99.90;;;;;;4893327;28;20386;-16
2023/08/27 02:44:11;;;;;;;1.77;1.20;;;17.50;99.90;;;;;;4857966;28;20044;-15
2023/08/27 02:46:37;;;;;;;1.88;1.20;;;17.50;99.90;;;;;;4897775;28;20032;-15
2023/08/27 02:49:03;;;;;;;3.60;1.20;;;17.50;99.90;;;;;;4938293;28;20055;-16
2023/08/27 02:51:28;;;;;;;2.50;1.30;;;17.50;99.90;;;;;;4960526;28;20231;-16
2023/08/27 02:53:55;;;;;;;1.33;1.10;;;17.50;99.90;;;;;;4897395;28;20398;-15
2023/08/27 02:56:21;;;;;;;2.15;1.40;;;17.40;99.90;;;;;;4883820;28;20261;-16
2023/08/27 02:58:51;;;;;;;1.75;1.13;;;17.50;99.90;;;;;;4889197;28;20044;-16
2023/08/27 03:01:21;;;;;;;1.98;1.10;;;17.50;99.90;;;;;;4943139;28;20087;-16
2023/08/27 03:03:48;;;;;;;1.63;1.10;;;17.40;99.90;;;;;;4879696;28;20127;-16
2023/08/27 03:06:13;;;;;;;1.70;1.08;;;17.40;99.90;;;;;;4976558;28;20035;-15
2023/08/27 03:08:39;;;;;;;1.33;1.20;;;17.40;99.90;;;;;;4901218;28;20119;-16
2023/08/27 03:11:05;;;;;;;2.10;1.40;;;17.40;99.90;;;;;;4969336;28;20032;-14
2023/08/27 03:13:31;;;;;;;2.07;1.23;;;17.40;99.90;;;;;;4876750;28;20686;-14
2023/08/27 03:15:57;;;;;;;2.13;1.30;;;17.40;99.90;;;;;;4886287;28;20166;-13
2023/08/27 03:18:22;;;;;;;3.57;1.23;;;17.30;99.90;;;;;;4950814;28;20811;-14
2023/08/27 03:20:48;;;;;;;2.40;1.30;;;17.30;99.90;;;;;;4882842;28;20040;-14
2023/08/27 03:23:14;;;;;;;2.77;1.40;;;17.30;99.90;;;;;;4894815;28;20038;-14
2023/08/27 03:25:40;;;;;;;1.77;1.17;;;17.30;99.90;;;;;;4903257;28;20373;-14
2023/08/27 03:28:05;;;;;;;2.17;1.27;;;17.50;99.90;;;;;;4967170;28;20292;-14
2023/08/27 03:30:31;;;;;;;2.97;1.10;;;17.30;99.90;;;;;;4875301;28;20235;-14
2023/08/27 03:32:57;;;;;;;1.93;1.20;;;17.30;99.90;;;;;;4979445;28;20429;-14
2023/08/27 03:35:22;;;;;;;2.65;1.10;;;17.30;99.90;;;;;;4865303;28;21275;-14
2023/08/27 03:37:48;;;;;;;2.03;1.30;;;17.30;99.90;;;;;;4892147;28;20033;-14
2023/08/27 03:40:14;;;;;;;1.75;1.30;;;17.20;99.90;;;;;;4888225;28;20028;-14
2023/08/27 03:42:40;;;;;;;1.63;1.05;;;17.70;99.90;;;;;;4978766;28;20048;-14
2023/08/27 03:45:06;;;;;;;1.77;1.30;;;17.20;99.90;;;;;;4878633;28;20031;-14
2023/08/27 03:47:32;;;;;;;2.92;1.30;;;17.20;99.90;;;;;;4960958;28;20580;-14
2023/08/27 03:49:58;;;;;;;2.33;1.20;;;17.20;99.90;;;;;;4918590;28;20036;-14
2023/08/27 03:52:23;;;;;;;2.37;1.20;;;17.20;99.90;;;;;;4961242;28;20039;-14
2023/08/27 03:54:49;;;;;;;2.65;1.20;;;17.20;99.90;;;;;;4895898;28;20036;-14
2023/08/27 03:57:15;;;;;;;1.80;1.20;;;17.20;99.90;;;;;;4898745;28;20063;-14
2023/08/27 03:59:41;;;;;;;1.73;1.10;;;17.10;99.90;;;;;;4969548;28;20043;-14
2023/08/27 04:02:08;;;;;;;1.77;1.20;;;17.10;99.90;;;;;;4879056;28;20456;-14
2023/08/27 04:04:34;;;;;;;1.65;1.08;;;17.10;99.90;;;;;;4883231;28;20933;-14
2023/08/27 04:07:01;;;;;;;1.52;1.10;;;17.10;99.90;;;;;;4898456;28;20032;-15
2023/08/27 04:09:27;;;;;;;1.83;1.20;;;17.10;99.90;;;;;;4886013;28;20098;-13
2023/08/27 04:11:53;;;;;;;1.50;1.03;;;17.00;99.90;;;;;;4969763;28;20715;-14
2023/08/27 04:14:18;;;;;;;1.48;0.98;;;17.00;99.90;;;;;;4935305;28;20036;-14
2023/08/27 04:16:44;;;;;;;1.60;1.20;;;17.00;99.90;;;;;;4881661;28;23378;-14
2023/08/27 04:19:10;;;;;;;1.70;1.00;;;17.00;99.90;;;;;;4957838;28;20505;-14
2023/08/27 04:21:36;;;;;;;2.73;1.07;;;16.90;99.90;;;;;;4877142;28;20051;-14
2023/08/27 04:24:02;;;;;;;1.80;1.10;;;16.50;99.90;;;;;;4981270;28;20496;-14
2023/08/27 04:26:28;;;;;;;1.90;1.08;;;16.90;99.90;;;;;;4965637;28;20040;-14
2023/08/27 04:28:54;;;;;;;1.20;0.90;;;16.90;99.90;;;;;;4986180;28;20035;-14
2023/08/27 04:31:21;;;;;;;2.03;1.00;;;16.90;99.90;;;;;;4890957;28;20717;-15
2023/08/27 04:33:47;;;;;;;1.42;1.10;;;17.30;99.90;;;;;;4966491;28;20179;-17
2023/08/27 04:36:13;;;;;;;1.38;1.25;;;16.80;99.90;;;;;;4951802;28;20079;-16
2023/08/27 04:38:38;;;;;;;1.63;1.20;;;16.80;99.90;;;;;;4977667;28;21128;-16
2023/08/27 04:41:04;;;;;;;2.00;1.23;;;16.80;99.90;;;;;;4903461;29;20039;-16
2023/08/27 04:43:30;;;;;;;1.60;1.20;;;16.80;99.90;;;;;;4901183;28;20122;-15
2023/08/27 04:45:55;;;;;;;2.20;1.00;;;16.80;99.90;;;;;;4888026;28;20118;-16
2023/08/27 04:48:21;;;;;;;1.67;1.10;;;16.80;99.90;;;;;;4908316;28;20478;-16
2023/08/27 04:50:47;;;;;;;2.30;1.17;;;16.80;99.90;;;;;;4923040;28;20040;-15
2023/08/27 04:53:13;;;;;;;2.42;1.00;;;16.80;99.90;;;;;;4965957;28;20059;-16
2023/08/27 04:55:39;;;;;;;4.13;1.50;;;16.80;99.90;;;;;;4893324;28;20506;-16
2023/08/27 04:58:05;;;;;;;1.75;1.00;;;16.80;99.90;;;;;;4888036;28;20044;-16
2023/08/27 05:00:31;;;;;;;1.98;1.10;;;16.80;99.90;;;;;;4948642;28;20464;-15
2023/08/27 05:02:57;;;;;;;1.25;1.02;;;16.70;99.90;;;;;;4945971;28;20025;-17
2023/08/27 05:05:23;;;;;;;1.33;1.00;;;16.80;99.90;;;;;;4879422;28;20139;-15
2023/08/27 05:07:49;;;;;;;1.95;0.88;;;16.80;99.90;;;;;;4864607;28;20057;-16
2023/08/27 05:10:15;;;;;;;2.47;1.10;;;16.80;99.90;;;;;;4953761;28;20028;-15
2023/08/27 05:12:40;;;;;;;1.77;1.33;;;16.80;99.90;;;;;;4970608;28;20059;-15
2023/08/27 05:15:07;;;;;;;1.73;1.00;;;16.80;99.90;;;;;;4890904;28;20265;-16
2023/08/27 05:17:33;;;;;;;2.10;0.90;;;16.90;99.90;;;;;;4885942;28;20032;-16
2023/08/27 05:19:58;;;;;;;1.48;1.00;;;16.90;99.90;;;;;;4939845;28;20035;-16
2023/08/27 05:22:24;;;;;;;1.40;1.00;;;16.90;99.90;;;;;;4863374;28;20032;-15
2023/08/27 05:24:50;;;;;;;1.42;1.00;;;16.90;99.90;;;;;;4893166;28;20110;-17
2023/08/27 05:27:15;;;;;;;1.50;1.00;;;16.90;99.90;;;;;;4966463;28;20482;-16
2023/08/27 05:29:41;;;;;;;1.60;1.10;;;16.90;99.90;;;;;;4883999;28;20093;-15
2023/08/27 05:32:07;;;;;;;1.70;1.00;;;16.90;99.90;;;;;;4893369;28;20154;-17
2023/08/27 05:34:33;;;;;;;2.07;1.10;;;16.90;99.90;;;;;;4949928;28;20032;-17
2023/08/27 05:36:59;;;;;;;1.65;1.10;;;17.00;99.90;;;;;;4982282;28;20032;-17
2023/08/27 05:39:24;;;;;;;1.95;1.10;;;16.60;99.90;;;;;;4866493;28;20024;-15
2023/08/27 05:41:50;;;;;;;2.40;1.10;;;17.00;99.90;;;;;;4895248;29;20254;-17
2023/08/27 05:44:17;;;;;;;2.20;1.23;;;17.00;99.90;;;;;;4976140;28;20044;-15
2023/08/27 05:46:42;;;;;;;1.77;1.23;;;17.00;99.90;;;;;;4890211;28;20060;-15
2023/08/27 05:49:08;;;;;;;1.77;1.00;;;17.00;99.90;;;;;;4889475;28;20490;-18
2023/08/27 05:51:37;;;;;;;1.80;1.15;;;17.00;99.90;;;;;;4952814;28;20524;-17
2023/08/27 05:54:03;;;;;;;2.53;1.30;;;17.00;99.90;;;;;;4862801;28;20056;-14
2023/08/27 05:56:29;;;;;;;2.15;1.20;;;17.00;99.90;;;;;;4912622;28;20126;-14
2023/08/27 05:58:55;;;;;;;1.92;1.27;;;17.00;99.90;;;;;;4895315;28;20542;-14
2023/08/27 06:01:21;;;;;;;2.05;1.30;;;17.00;99.90;;;;;;4904307;28;20386;-14
2023/08/27 06:03:47;;;;;;;2.33;1.20;;;17.00;99.90;;;;;;4889894;28;20055;-14
2023/08/27 06:06:14;;;;;;;3.13;1.50;;;17.00;99.90;;;;;;4890151;28;20185;-14
2023/08/27 06:08:40;;;;;;;2.17;1.30;;;17.00;99.90;;;;;;4905677;28;20028;-14
2023/08/27 06:11:05;;;;;;;1.70;1.10;;;17.00;99.90;;;;;;4854963;28;20029;-15
2023/08/27 06:13:31;;;;;;;2.10;1.10;;;17.00;99.90;;;;;;4901315;28;20043;-14
2023/08/27 06:15:57;;;;;;;2.10;1.15;;;17.00;99.90;;;;;;4975760;28;20036;-14
2023/08/27 06:18:23;;;;;;;2.13;1.40;;;17.10;99.90;;;;;;4886841;28;20051;-14
2023/08/27 06:20:49;;;;;;;2.20;1.30;;;17.10;99.90;;;;;;4949953;28;20634;-14
2023/08/27 06:23:15;;;;;;;1.67;1.33;;;17.10;99.90;;;;;;4903128;28;20028;-14
2023/08/27 06:25:41;;;;;;;3.13;1.60;;;17.10;99.90;;;;;;4868101;28;21580;-14
2023/08/27 06:28:07;;;;;;;2.60;1.43;;;17.10;99.90;;;;;;4902014;28;20020;-14
2023/08/27 06:30:33;;;;;;;1.98;1.30;;;17.10;99.90;;;;;;4873018;28;20035;-14
2023/08/27 06:33:01;;;;;;;4.13;1.80;;;17.20;99.90;;;;;;4969476;28;20032;-13
2023/08/27 06:35:27;;;;;;;4.50;1.65;;;17.20;99.90;;;;;;4952495;28;20028;-14
2023/08/27 06:37:53;;;;;;;1.80;1.40;;;17.20;99.90;;;;;;4956651;28;20616;-15
2023/08/27 06:40:19;;;;;;;1.92;1.10;;;17.20;99.90;;;;;;4958119;28;20020;-15
2023/08/27 06:42:44;;;;;;;3.35;1.38;;;17.20;99.90;;;;;;4946077;28;20247;-14
2023/08/27 06:45:11;;;;;;;2.03;1.40;;;17.30;99.90;;;;;;4890311;28;20032;-14
2023/08/27 06:47:37;;;;;;;1.85;1.15;;;17.30;99.90;;;;;;4895427;28;20032;-14
2023/08/27 06:50:04;;;;;;;2.27;1.57;;;17.30;99.90;;;;;;4894974;28;20036;-15
2023/08/27 06:52:33;;;;;;;1.60;1.20;;;17.40;99.90;;;;;;4891668;28;20284;-14
2023/08/27 06:55:00;;;;;;;3.25;1.58;;;17.30;99.90;;;;;;4968237;28;20036;-14
2023/08/27 06:57:26;;;;;;;3.72;1.83;;;17.40;99.90;;;;;;4945100;28;20227;-15
2023/08/27 06:59:52;;;;;;;2.13;1.33;;;17.50;99.90;;;;;;4900976;28;20062;-14
2023/08/27 07:02:18;;;;;;;2.30;1.43;;;17.50;99.90;;;;;;4888809;28;20418;-16
2023/08/27 07:04:44;;;;;;;2.92;1.52;;;17.60;99.90;;;;;;4954269;28;20118;-16
2023/08/27 07:07:09;;;;;;;2.45;1.27;;;17.60;99.90;;;;;;4962185;28;20658;-16
2023/08/27 07:09:35;;;;;;;1.70;1.13;;;17.70;99.90;;;;;;4904937;28;20083;-16
2023/08/27 07:12:01;;;;;;;2.15;1.30;;;17.70;99.90;;;;;;4880959;28;20147;-16
2023/08/27 07:14:27;;;;;;;1.90;1.20;;;17.80;99.90;;;;;;4982327;28;20093;-17
2023/08/27 07:16:53;;;;;;;2.70;1.33;;;17.80;99.90;;;;;;4888752;28;20609;-16
2023/08/27 07:19:18;;;;;;;2.17;1.30;;;17.90;99.90;;;;;;4952403;28;20131;-16
2023/08/27 07:21:44;;;;;;;3.13;1.57;;;18.00;99.90;;;;;;4900624;28;20280;-16
2023/08/27 07:24:13;;;;;;;2.20;1.33;;;18.00;99.90;;;;;;4879489;28;20190;-16
2023/08/27 07:26:39;;;;;;;1.87;1.20;;;18.10;99.90;;;;;;4893889;28;20083;-17
2023/08/27 07:29:05;;;;;;;1.88;1.17;;;18.10;99.90;;;;;;4940789;28;20279;-17
2023/08/27 07:31:31;;;;;;;3.40;1.35;;;18.20;99.90;;;;;;4885889;28;20029;-16
2023/08/27 07:33:57;;;;;;;2.80;1.40;;;18.30;99.90;;;;;;4898586;29;20111;-16
2023/08/27 07:36:23;;;;;;;1.67;1.20;;;18.30;99.90;;;;;;4967979;28;20042;-17
2023/08/27 07:38:49;;;;;;;1.88;1.20;;;18.40;99.90;;;;;;4939387;28;20517;-16
2023/08/27 07:41:14;;;;;;;2.47;1.30;;;18.60;99.90;;;;;;4888750;28;20123;-17
2023/08/27 07:43:40;;;;;;;3.60;1.20;;;18.60;99.90;;;;;;4891897;28;20284;-16
2023/08/27 07:46:06;;;;;;;2.67;1.30;;;18.70;99.90;;;;;;4931298;28;20031;-17
2023/08/27 07:48:32;;;;;;;1.87;1.23;;;18.80;99.90;;;;;;4885073;28;20037;-17
2023/08/27 07:50:58;;;;;;;2.22;1.10;;;18.80;99.90;;;;;;4882054;28;20030;-16
2023/08/27 07:53:24;;;;;;;2.33;1.15;;;18.90;99.90;;;;;;4872039;28;20051;-16
2023/08/27 07:55:50;;;;;;;5.90;1.10;;;19.00;99.90;;;;;;4940824;28;20417;-16
2023/08/27 07:58:16;;;;;;;3.60;1.25;;;19.10;99.90;;;;;;4899324;28;20055;-17
2023/08/27 08:00:42;;;;;;;1.60;1.00;;;19.20;99.90;;;;;;4956499;28;20378;-16
2023/08/27 08:03:08;;;;;;;1.65;1.10;;;19.30;99.90;;;;;;4968644;28;20040;-17
2023/08/27 08:05:34;;;;;;;1.60;1.10;;;19.40;99.90;;;;;;4997652;28;20100;-17
2023/08/27 08:08:00;;;;;;;3.55;1.20;;;19.40;99.90;;;;;;4962707;28;20027;-17
2023/08/27 08:10:25;;;;;;;2.00;1.00;;;19.40;99.90;;;;;;4962874;28;20030;-18
2023/08/27 08:12:52;;;;;;;1.88;1.10;;;19.50;99.90;;;;;;4974895;28;20037;-17
2023/08/27 08:15:19;;;;;;;1.60;1.00;;;19.80;99.90;;;;;;4987704;28;20684;-17
2023/08/27 08:17:45;;;;;;;1.83;1.00;;;19.60;99.90;;;;;;4956335;28;20033;-17
2023/08/27 08:20:11;;;;;;;4.72;1.17;;;19.70;99.90;;;;;;4964914;28;20563;-17
2023/08/27 08:22:38;;;;;;;2.30;1.00;;;19.80;99.90;;;;;;4964189;28;20480;-18
2023/08/27 08:25:04;;;;;;;2.78;1.20;;;19.90;99.90;;;;;;4956904;28;20270;-18
2023/08/27 08:27:30;;;;;;;1.58;1.08;;;19.90;99.90;;;;;;4977117;28;20055;-17
2023/08/27 08:29:55;;;;;;;2.40;1.00;;;19.90;99.90;;;;;;4973930;28;20070;-17
2023/08/27 08:32:21;;;;;;;1.80;0.90;;;20.00;99.90;;;;;;4952975;28;20088;-16
2023/08/27 08:34:47;;;;;;;3.17;1.10;;;20.20;99.90;;;;;;4953732;28;20101;-17
2023/08/27 08:37:13;;;;;;;1.60;1.00;;;20.30;99.90;;;;;;4949570;28;20065;-16
2023/08/27 08:39:38;;;;;;;2.10;1.10;;;20.40;99.90;;;;;;4977085;28;20026;-16
2023/08/27 08:42:29;;;;;;;3.15;1.00;;;20.50;99.90;;;;;;4956581;28;20041;-17
2023/08/27 08:45:19;;;;;;;1.45;0.95;;;20.70;99.90;;;;;;4972807;28;20034;-17
2023/08/27 08:47:47;;;;;;;1.40;1.00;;;20.70;99.90;;;;;;4970413;28;20121;-17
2023/08/27 08:50:13;;;;;;;2.10;1.00;;;21.20;99.90;;;;;;4965168;28;20030;-17
2023/08/27 08:52:39;;;;;;;2.55;1.17;;;21.50;99.90;;;;;;4974065;28;20034;-17
2023/08/27 08:55:10;;;;;;;4.68;1.48;;;21.90;99.90;;;;;;4959682;28;20064;-17
2023/08/27 08:58:00;;;;;;;1.67;0.90;;;22.30;99.90;;;;;;4974410;28;20034;-17
2023/08/27 09:00:27;;;;;;;1.90;0.80;;;22.70;99.90;;;;;;4976772;28;20026;-17
2023/08/27 09:02:54;;;;;;;2.60;0.85;;;22.90;99.90;;;;;;4951813;28;20550;-18
2023/08/27 09:05:21;;;;;;;1.83;0.90;;;23.10;99.90;;;;;;4889715;28;20048;-18
2023/08/27 09:07:48;;;;;;;1.10;0.80;;;23.10;99.90;;;;;;4895441;28;20607;-18
2023/08/27 09:10:14;;;;;;;2.55;1.00;;;23.20;99.90;;;;;;4873625;28;20035;-18
2023/08/27 09:12:41;;;;;;;1.20;0.83;;;23.20;99.90;;;;;;4879672;28;20040;-18
2023/08/27 09:15:09;;;;;;;2.35;0.90;;;23.20;99.90;;;;;;4899125;28;20261;-18
2023/08/27 09:17:35;;;;;;;1.70;1.00;;;23.20;99.90;;;;;;4872785;28;20086;-19
2023/08/27 09:20:01;;;;;;;1.85;0.90;;;23.10;99.90;;;;;;4882367;28;20036;-18
2023/08/27 09:22:27;;;;;;;1.52;0.80;;;23.00;99.90;;;;;;4899742;29;20028;-19
2023/08/27 09:24:53;;;;;;;1.03;0.87;;;22.90;99.90;;;;;;4948955;28;20032;-18
2023/08/27 09:27:19;;;;;;;1.05;0.90;;;22.70;99.90;;;;;;4965127;28;20036;-18
2023/08/27 09:29:47;;;;;;;1.67;0.93;;;22.60;99.90;;;;;;4891074;28;20032;-18
2023/08/27 09:32:22;;;;;;;0.90;0.80;;;22.50;99.90;;;;;;4953290;28;20118;-19
2023/08/27 09:34:48;;;;;;;1.83;1.00;;;21.00;99.90;;;;;;4877980;28;21788;-18
2023/08/27 09:37:14;;;;;;;1.10;0.90;;;22.30;99.90;;;;;;4966135;28;20055;-19
2023/08/27 09:39:42;;;;;;;1.45;0.90;;;22.10;99.90;;;;;;4955079;28;20120;-21
2023/08/27 09:42:12;;;;;;;2.87;1.10;;;22.10;99.90;;;;;;4902222;28;20441;-18
2023/08/27 09:44:51;;;;;;;1.77;1.02;;;22.10;99.90;;;;;;4951790;28;20051;-22
2023/08/27 09:47:27;;;;;;;1.42;1.10;;;22.20;99.90;;;;;;4902150;29;20039;-21
2023/08/27 09:49:53;;;;;;;2.00;1.17;;;22.30;99.90;;;;;;4877040;28;20024;-21
2023/08/27 09:52:26;;;;;;;1.87;1.50;;;22.60;99.90;;;;;;4963812;28;20085;-20
2023/08/27 09:54:53;;;;;;;2.58;1.20;;;23.00;99.90;;;;;;4946173;28;20032;-19
2023/08/27 09:57:20;;;;;;;2.13;1.30;;;23.50;99.90;;;;;;4883200;28;20059;-20
2023/08/27 09:59:46;;;;;;;1.42;1.15;;;24.10;99.90;;;;;;4877757;28;20027;-20
2023/08/27 10:02:15;;;;;;;2.08;1.20;;;24.60;99.90;;;;;;4906664;28;20029;-20
2023/08/27 10:04:52;;;;;;;1.30;1.20;;;25.10;99.90;;;;;;4878343;28;20050;-20
2023/08/27 10:07:18;;;;;;;1.67;1.10;;;25.60;99.90;;;;;;4889707;28;20043;-20
2023/08/27 10:09:51;;;;;;;1.48;1.20;;;26.00;99.90;;;;;;4972802;28;20036;-20
2023/08/27 10:12:18;;;;;;;2.25;1.05;;;26.30;99.90;;;;;;4954109;28;20035;-20
2023/08/27 10:14:45;;;;;;;1.38;0.90;;;26.50;99.90;;;;;;4873985;28;20028;-22
2023/08/27 10:17:13;;;;;;;1.63;1.10;;;26.70;99.90;;;;;;4965596;28;20056;-21
2023/08/27 10:19:39;;;;;;;1.33;0.90;;;26.90;99.90;;;;;;4955036;28;20037;-21
2023/08/27 10:22:05;;;;;;;2.00;0.85;;;26.90;99.90;;;;;;4968462;28;20024;-19
2023/08/27 10:24:32;;;;;;;1.90;0.90;;;26.70;99.90;;;;;;4843651;28;20394;-20
2023/08/27 10:26:59;;;;;;;1.67;1.00;;;26.40;99.90;;;;;;4952853;28;20091;-19
2023/08/27 10:29:27;;;;;;;1.20;0.80;;;26.20;99.90;;;;;;4906375;28;20356;-19
2023/08/27 10:31:53;;;;;;;1.40;0.80;;;25.80;99.90;;;;;;4980196;28;20028;-20
2023/08/27 10:34:29;;;;;;;1.80;1.00;;;25.50;99.90;;;;;;4959551;28;20501;-19
2023/08/27 10:37:06;;;;;;;1.98;1.00;;;25.30;99.90;;;;;;4896401;28;20104;-19
2023/08/27 10:39:33;;;;;;;1.58;0.90;;;25.00;99.90;;;;;;4947639;28;20272;-19
2023/08/27 10:41:59;;;;;;;1.93;0.80;;;24.80;99.90;;;;;;4892014;28;20491;-19
2023/08/27 10:44:25;;;;;;;0.85;0.85;;;24.60;99.90;;;;;;4962267;28;20398;-19
2023/08/27 10:47:09;;;;;;;1.70;1.20;;;24.60;99.90;;;;;;4972666;28;20511;-19
2023/08/27 10:49:39;;;;;;;1.92;1.00;;;24.40;99.90;;;;;;4955519;28;20731;-20
2023/08/27 10:52:13;;;;;;;1.33;1.15;;;24.50;99.90;;;;;;4878754;28;20190;-21
2023/08/27 10:54:39;;;;;;;2.30;1.20;;;24.80;99.90;;;;;;4886986;28;20596;-19
2023/08/27 10:57:23;;;;;;;1.35;1.00;;;25.20;99.90;;;;;;4940524;28;20102;-20
2023/08/27 10:59:51;;;;;;;1.65;1.00;;;25.70;99.90;;;;;;4875306;28;20489;-19
2023/08/27 11:02:18;;;;;;;1.75;1.00;;;26.10;99.90;;;;;;4913160;28;20028;-20
2023/08/27 11:04:54;;;;;;;1.30;1.20;;;26.50;99.90;;;;;;4942192;28;20054;-21
2023/08/27 11:07:22;;;;;;;1.50;1.00;;;26.70;99.90;;;;;;4979266;28;20066;-23
2023/08/27 11:09:52;;;;;;;1.13;0.82;;;26.90;99.90;;;;;;4886088;28;20024;-20
2023/08/27 11:12:32;;;;;;;1.20;1.00;;;26.90;99.90;;;;;;4896636;28;20055;-20
2023/08/27 11:15:11;;;;;;;1.45;0.85;;;26.80;99.90;;;;;;4890006;28;20039;-21
2023/08/27 11:17:38;;;;;;;1.02;0.93;;;26.60;99.90;;;;;;4946847;28;20053;-20
2023/08/27 11:20:25;;;;;;;1.43;1.10;;;26.40;99.90;;;;;;4871854;28;20115;-20
2023/08/27 11:23:02;;;;;;;2.17;0.93;;;26.10;99.50;;;;;;4966203;28;20869;-21
2023/08/27 11:25:30;;;;;;;1.73;1.00;;;25.90;99.90;;;;;;4892251;28;20588;-20
2023/08/27 11:27:59;;;;;;;1.33;1.00;;;25.80;99.90;;;;;;4881304;28;20149;-21
2023/08/27 11:30:26;;;;;;;0.95;0.90;;;25.60;99.90;;;;;;4885727;28;20387;-20
2023/08/27 11:32:55;;;;;;;1.20;0.90;;;25.60;99.90;;;;;;4886666;28;20122;-21
2023/08/27 11:35:27;;;;;;;1.02;0.90;;;25.70;99.90;;;;;;4941682;28;20422;-20
2023/08/27 11:37:54;;;;;;;0.93;0.90;;;25.90;99.90;;;;;;4895626;28;20032;-20
2023/08/27 11:40:20;;;;;;;1.13;0.90;;;26.20;99.90;;;;;;4885695;28;20066;-20
2023/08/27 11:42:56;;;;;;;1.15;0.80;;;26.50;99.90;;;;;;4951763;28;20028;-20
2023/08/27 11:45:30;;;;;;;1.20;0.90;;;26.90;99.90;;;;;;4971782;28;20047;-20
2023/08/27 11:47:57;;;;;;;1.10;1.00;;;27.30;99.90;;;;;;4880897;28;20032;-20
2023/08/27 11:50:23;;;;;;;1.88;0.90;;;27.60;99.90;;;;;;4859369;28;20036;-21
2023/08/27 11:52:49;;;;;;;1.07;0.90;;;27.70;99.90;;;;;;4927593;28;20043;-20
2023/08/27 11:55:20;;;;;;;1.30;0.80;;;27.60;99.90;;;;;;4882258;28;20549;-20
2023/08/27 11:57:46;;;;;;;1.15;0.80;;;27.40;99.90;;;;;;4936357;28;20116;-20
2023/08/27 12:00:13;;;;;;;1.23;0.80;;;27.10;99.90;;;;;;4894756;28;20066;-20
2023/08/27 12:02:39;;;;;;;0.98;0.70;;;26.90;99.90;;;;;;4880026;28;20428;-19
2023/08/27 12:05:08;;;;;;;1.00;0.70;;;26.60;99.90;;;;;;4893080;28;20610;-18
2023/08/27 12:07:35;;;;;;;1.07;0.80;;;26.30;99.50;;;;;;4940683;28;20036;-19
2023/08/27 12:10:07;;;;;;;1.50;0.80;;;26.00;97.00;;;;;;4890308;28;20054;-18
2023/08/27 12:12:36;;;;;;;2.33;0.70;;;25.60;95.10;;;;;;4892251;28;20035;-17
2023/08/27 12:15:03;;;;;;;1.95;0.60;;;25.00;93.90;;;;;;4888906;28;20154;-15
2023/08/27 12:17:33;;;;;;;0.90;0.50;;;24.50;94.00;;;;;;4977664;28;20048;-16
2023/08/27 12:20:01;;;;;;;1.03;0.60;;;24.00;93.60;;;;;;4893646;28;20032;-15
2023/08/27 12:22:27;;;;;;;0.77;0.60;;;23.40;94.30;;;;;;4959750;28;20094;-16
2023/08/27 12:24:54;;;;;;;0.60;0.60;;;22.90;94.90;;;;;;4929865;28;20526;-16
2023/08/27 12:27:23;;;;;;;0.88;0.52;;;22.50;95.30;;;;;;4888521;28;20086;-16
2023/08/27 12:29:52;;;;;;;0.50;0.50;;;22.20;95.90;;;;;;4957518;28;20024;-15
2023/08/27 12:32:21;;;;;;;0.67;0.60;;;21.40;97.50;;;;;;4905441;28;20448;-16
2023/08/27 12:34:51;;;;;;;0.73;0.50;;;21.50;97.00;;;;;;4938153;28;20345;-15
2023/08/27 12:37:19;;;;;;;0.50;0.50;;;21.30;97.00;;;;;;4904811;28;20024;-15
2023/08/27 12:39:46;;;;;;;0.75;0.60;;;21.10;97.40;;;;;;4880983;28;20035;-15
2023/08/27 12:42:17;;;;;;;0.90;0.65;;;21.00;98.00;;;;;;4899827;28;20800;-15
2023/08/27 12:44:44;;;;;;;0.67;0.50;;;20.80;98.50;;;;;;4878282;28;20062;-15
2023/08/27 12:47:11;;;;;;;0.60;0.60;;;20.80;99.20;;;;;;4970460;28;21160;-15
2023/08/27 12:49:37;;;;;;;1.10;0.70;;;20.70;99.90;;;;;;4946299;28;20226;-15